createdAt,value
2023-03-15T00:05:43.926Z,1.25
2023-03-15T00:17:37.086Z,1.07
2023-03-15T00:29:37.547Z,2.08
2023-03-15T00:41:38.143Z,2.08
2023-03-15T00:53:38.448Z,1.39
2023-03-15T01:05:40.599Z,1.05
2023-03-15T01:17:39.359Z,1.84
2023-03-15T01:29:39.838Z,0.77
2023-03-15T01:41:40.221Z,0.57
2023-03-15T01:53:43.420Z,1.28
2023-03-15T02:05:41.173Z,0.79
2023-03-15T02:17:41.643Z,1.08
2023-03-15T02:29:42.082Z,2.22
2023-03-15T02:41:42.638Z,1.93
2023-03-15T02:53:42.984Z,0.32
2023-03-15T03:05:43.458Z,1.53
2023-03-15T03:17:43.877Z,2.15
2023-03-15T03:29:44.334Z,2.10
2023-03-15T03:41:44.793Z,2.27
2023-03-15T03:53:45.703Z,2.18
2023-03-15T04:05:45.698Z,1.99
2023-03-15T04:17:46.147Z,2.24
2023-03-15T04:29:46.607Z,1.12
2023-03-15T04:41:47.014Z,1.41
2023-03-15T04:53:47.476Z,1.16
2023-03-15T05:05:47.957Z,1.17
2023-03-15T05:17:48.421Z,1.04
2023-03-15T05:29:48.883Z,1.58
2023-03-15T05:41:49.309Z,1.41
2023-03-15T05:53:49.730Z,1.93
2023-03-15T06:05:50.212Z,1.90
2023-03-15T06:17:52.379Z,1.98
2023-03-15T06:29:51.127Z,1.10
2023-03-15T06:41:51.585Z,2.03
2023-03-15T06:53:52.013Z,1.96
2023-03-15T07:05:52.659Z,3.03
2023-03-15T07:17:52.945Z,3.04
2023-03-15T07:29:53.525Z,4.83
2023-03-15T07:41:53.869Z,1.56
2023-03-15T07:53:54.327Z,2.39
2023-03-15T08:05:57.516Z,3.14
2023-03-15T08:17:55.206Z,3.17
2023-03-15T08:29:55.599Z,1.91
2023-03-15T08:41:56.104Z,4.33
2023-03-15T08:53:56.541Z,3.87
2023-03-15T09:05:57.010Z,4.79
2023-03-15T09:17:57.456Z,4.02
2023-03-15T09:29:57.941Z,5.67
2023-03-15T09:41:58.337Z,6.01
2023-03-15T09:53:58.823Z,6.02
2023-03-15T10:05:59.285Z,6.51
2023-03-15T10:17:59.742Z,7.83
2023-03-15T10:30:00.174Z,5.51
2023-03-15T10:42:00.640Z,4.46
2023-03-15T10:54:01.069Z,3.71
2023-03-15T11:06:01.562Z,6.03
2023-03-15T11:18:01.976Z,6.92
2023-03-15T11:30:02.422Z,6.62
2023-03-15T11:42:02.871Z,5.29
2023-03-15T11:54:03.418Z,4.85
2023-03-15T12:06:03.805Z,5.80
2023-03-15T12:18:04.257Z,6.41
2023-03-15T12:30:04.702Z,7.02
2023-03-15T12:42:05.295Z,5.64
2023-03-15T12:54:05.621Z,5.08
2023-03-15T13:06:06.058Z,6.58
2023-03-15T13:18:06.516Z,6.71
2023-03-15T13:30:06.974Z,3.89
2023-03-15T13:42:07.433Z,6.26
2023-03-15T13:54:07.850Z,5.82
2023-03-15T14:06:08.312Z,5.76
2023-03-15T14:18:08.781Z,5.72
2023-03-15T14:30:09.272Z,5.82
2023-03-15T14:42:09.694Z,4.71
2023-03-15T14:54:10.121Z,3.57
2023-03-15T15:06:10.613Z,4.15
2023-03-15T15:18:11.037Z,6.75
2023-03-15T15:30:11.469Z,4.70
2023-03-15T15:42:11.956Z,3.28
2023-03-15T15:54:12.391Z,5.14
2023-03-15T16:06:12.849Z,4.20
2023-03-15T16:18:13.416Z,3.83
2023-03-15T16:30:13.751Z,4.31
2023-03-15T16:42:15.265Z,3.13
2023-03-15T17:06:15.136Z,2.88
2023-03-15T17:18:15.628Z,0.90
2023-03-15T17:30:16.033Z,0.24
2023-03-15T17:42:16.542Z,1.34
2023-03-15T17:54:16.906Z,4.52
2023-03-15T18:06:17.372Z,3.54
2023-03-15T18:18:17.804Z,2.11
2023-03-15T18:30:18.283Z,0.60
2023-03-15T18:42:18.735Z,0.46
2023-03-15T18:54:19.132Z,0.53
2023-03-15T19:06:19.638Z,0.46
2023-03-15T19:18:20.097Z,0.79
2023-03-15T19:30:20.531Z,0.41
2023-03-15T19:42:20.984Z,0.63
2023-03-15T19:54:21.477Z,0.34
2023-03-15T20:06:24.106Z,0.36
2023-03-15T20:18:22.380Z,0.59
2023-03-15T20:30:23.310Z,0.54
2023-03-15T20:54:25.979Z,0.10
2023-03-15T21:06:24.277Z,0.00
2023-03-15T21:18:24.609Z,0.17
2023-03-15T21:30:25.426Z,0.02
2023-03-15T21:42:25.490Z,0.17
2023-03-15T21:54:25.959Z,0.31
2023-03-15T22:06:26.394Z,0.37
2023-03-15T22:18:26.944Z,0.05
2023-03-15T22:30:27.860Z,0.50
2023-03-15T22:42:27.925Z,0.08
2023-03-15T22:54:30.411Z,1.23
2023-03-15T23:06:28.711Z,0.29
2023-03-15T23:18:29.124Z,0.40
2023-03-15T23:30:29.617Z,0.00
2023-03-15T23:42:32.729Z,0.16
2023-03-15T23:54:30.510Z,0.29
